« 定点 富山空港 2020/6/20 sat | トップページ | 定点 富山空港 2020/6/23 tue »

2020/06/21

定点 富山空港 2020/6/21 sun

梅雨晴れの青空。今日は、父の日、夏至、部分日食となにかと忙しい日です。

RJNT 202300Z VRB01KT 9999 FEW020 20/14 Q1012

20200621_rjnt_00ja03an

今朝は、チビでした。

20200621_rjnt_01ja03an

ANA313 RJTT-RJNT JA03AN B737-781

RJNT 210000Z 30003KT 220V350 9999 FEW025 21/13 Q1011

20200621_rjnt_02ja03an

20200621_rjnt_03ja03an

ANA316 RJNT-RJTT JA03AN B737-781

20200621_rjnt_04ja9690

JA9690↓ AS332L AKF

昨日、たぶん八尾に帰ったスパビューさんが帰ってきました。

###

 

###

RJNT 210100Z 32004KT 270V010 9999 FEW025 23/14 Q1011

20200621_rjnt_05tobi

今年は、とにかくトビが多い。よく見るとカワイイ顔つき。

20200621_rjnt_06n609up

UPS88 PANC-RKSI N609UP B747-8F

20200621_rjnt_07ja01ad

JA01AD C208 HRT あいかわらず文鎮

20200621_rjnt_08ja9785

JA9785 AS350B TKB

昨日飛来したトモエ乳業は、本日お休み

RJNT 210200Z 34006KT 290V030 9999 FEW030 24/15 Q1010

20200621_rjnt_09ja888p

まったりしてると、続々到着

20200621_rjnt_10ja888p

JA888P C208 KKK

20200621_rjnt_11ja9878

JA9878↓ AS350 THK

20200621_rjnt_12ja9878

20200621_rjnt_13ja9878

で、今日は測量機祭り

RJNT 210300Z 35007KT 320V020 9999 FEW030 24/15 Q1010

20200621_rjnt_14ja9878

JA9878↑ 給油して、早速お仕事に出発

20200621_rjnt_15ja6502

JA6502 AS350B3 AKF

20200621_rjnt_16tommbo

トンボさんが爆撃地点を策定中

20200621_rjnt_17hibari

ヒバリさんが警戒しながら草をついばみ

RJNT 210400Z 36007KT 330V050 9999 FEW030 24/15 Q1009

20200621_rjnt_18ja139t

「つるぎ」さんが引き出されると同時に呼び出しの隊員が駆け付け。

20200621_rjnt_19ja139t

なにやらS&R事案の模様

20200621_rjnt_20ja4319

JA4319 DR-400-180R

20200621_rjnt_21ja139t

JA139T AW139 富山県警察 どうも山の様

20200621_rjnt_22ja3446

JA3446 BE33

RJNT 210500Z 01010KT 9999 FEW030 24/15 Q1009

20200621_rjnt_23ja139t

無事S&R終了 東部方面に降ろしてきたみたい。

追記:剱岳の前剱付近で英国人大学院生滑落し重症

20200621_rjnt_24ja139t

JA139T↓

20200621_rjnt_25ja4319

続けてやってきた小型機が出発です。

20200621_rjnt_26ja4319

ワンタイムT&G

20200621_rjnt_27ja4319

では、お先にー

20200621_rjnt_28ja4319

JA4319↑

20200621_rjnt_29ja3446

こちらは、ノーマルテイクオフ

20200621_rjnt_30ja3446

JA3446↑

20200621_rjnt_31ja9878

JA9878↓

これにて撤収して、自宅で日食観測。

 

|

« 定点 富山空港 2020/6/20 sat | トップページ | 定点 富山空港 2020/6/23 tue »

富山空港」カテゴリの記事

コメント

JA3446様 稚拙な当ブログをご覧になりコメント頂きありがとうございます。小生ボナンザだからA36やろっと、早とちりしていました。ご指摘ありがとうございました。当該機は、かつて但馬におられましたね。また残り少ない旧航大機と確認しております。また機会があれば、富山へお越しください。

投稿: G4 | 2020/07/02 19:43

JA3446当日の操縦者です。素敵なお写真ありがとうございます!

ちなみにこの機体、日本ではほぼ絶滅したE33という種類です。おそらくは兄弟機である3444とこの機体だけが生き残っているのではないかと。

ボナンザなのに4人乗りのショートボディです。窓の数が違うので峻別しやすいかもです~。

投稿: JA3446 | 2020/07/02 13:18

コメントを書く



(ウェブ上には掲載しません)


コメントは記事投稿者が公開するまで表示されません。



« 定点 富山空港 2020/6/20 sat | トップページ | 定点 富山空港 2020/6/23 tue »